createdAt,value
2023-02-22T00:02:13.838Z,-60
2023-02-22T00:04:43.333Z,-64
2023-02-22T00:07:11.593Z,-62
2023-02-22T00:09:39.683Z,-57
2023-02-22T00:12:08.620Z,-56
2023-02-22T00:14:36.750Z,-55
2023-02-22T00:17:04.866Z,-52
2023-02-22T00:19:32.965Z,-52
2023-02-22T00:22:03.022Z,-57
2023-02-22T00:24:36.047Z,-53
2023-02-22T00:27:04.598Z,-53
2023-02-22T00:29:34.302Z,-53
2023-02-22T00:32:02.646Z,-53
2023-02-22T00:34:30.888Z,-53
2023-02-22T00:37:02.781Z,-55
2023-02-22T00:39:32.344Z,-55
2023-02-22T00:42:00.493Z,-52
2023-02-22T00:44:28.831Z,-54
2023-02-22T00:46:56.934Z,-50
2023-02-22T00:49:26.078Z,-56
2023-02-22T00:51:54.763Z,-54
2023-02-22T00:54:23.002Z,-53
2023-02-22T00:56:53.348Z,-55
2023-02-22T00:59:21.527Z,-53
2023-02-22T01:01:49.618Z,-53
2023-02-22T01:04:18.357Z,-52
2023-02-22T01:06:46.653Z,-55
2023-02-22T01:09:14.818Z,-53
2023-02-22T01:11:42.924Z,-55
2023-02-22T01:14:12.418Z,-52
2023-02-22T01:16:40.601Z,-53
2023-02-22T01:19:08.777Z,-54
2023-02-22T01:21:36.864Z,-54
2023-02-22T01:24:05.442Z,-53
2023-02-22T01:26:33.594Z,-51
2023-02-22T01:29:02.190Z,-53
2023-02-22T01:31:31.623Z,-52
2023-02-22T01:33:59.796Z,-53
2023-02-22T01:36:27.891Z,-53
2023-02-22T01:38:55.982Z,-52
2023-02-22T01:41:24.107Z,-55
2023-02-22T01:43:52.219Z,-53
2023-02-22T01:46:27.480Z,-52
2023-02-22T01:49:03.073Z,-52
2023-02-22T01:51:37.791Z,-54
2023-02-22T01:54:13.483Z,-54
2023-02-22T01:56:51.055Z,-52
2023-02-22T01:59:20.040Z,-52
2023-02-22T02:01:48.348Z,-53
2023-02-22T02:04:25.441Z,-50
2023-02-22T02:06:57.082Z,-48
2023-02-22T02:09:35.382Z,-53
2023-02-22T02:12:06.435Z,-51
2023-02-22T02:14:40.293Z,-54
2023-02-22T02:17:10.804Z,-52
2023-02-22T02:19:56.744Z,-52
2023-02-22T02:22:48.215Z,-57
2023-02-22T02:26:00.546Z,-55
2023-02-22T02:29:27.645Z,-52
2023-02-22T02:32:27.309Z,-56
2023-02-22T02:35:05.289Z,-53
2023-02-22T02:37:48.011Z,-50
2023-02-22T02:40:26.487Z,-54
2023-02-22T02:43:02.504Z,-49
2023-02-22T02:45:37.703Z,-54
2023-02-22T02:48:11.355Z,-57
2023-02-22T02:50:45.168Z,-54
2023-02-22T02:53:19.004Z,-53
2023-02-22T02:55:47.300Z,-56
2023-02-22T02:58:21.357Z,-52
2023-02-22T03:00:55.458Z,-55
2023-02-22T03:04:15.851Z,-53
2023-02-22T03:07:33.477Z,-52
2023-02-22T03:10:22.055Z,-55
2023-02-22T03:13:06.021Z,-53
2023-02-22T03:15:45.734Z,-55
2023-02-22T03:18:28.990Z,-53
2023-02-22T03:21:11.769Z,-54
2023-02-22T03:23:48.034Z,-54
2023-02-22T03:26:24.877Z,-54
2023-02-22T03:28:56.929Z,-54
2023-02-22T03:31:30.703Z,-55
2023-02-22T03:34:05.778Z,-56
2023-02-22T03:36:40.648Z,-58
2023-02-22T03:39:15.983Z,-53
2023-02-22T03:41:51.357Z,-53
2023-02-22T03:44:27.656Z,-53
2023-02-22T03:47:03.031Z,-54
2023-02-22T03:49:38.363Z,-53
2023-02-22T03:52:09.782Z,-53
2023-02-22T03:54:38.502Z,-54
2023-02-22T03:57:15.016Z,-54
2023-02-22T03:59:43.961Z,-53
2023-02-22T04:02:12.455Z,-55
2023-02-22T04:04:40.661Z,-53
2023-02-22T04:07:10.118Z,-53
2023-02-22T04:09:38.228Z,-53
2023-02-22T04:12:07.033Z,-52
2023-02-22T04:14:35.172Z,-52
2023-02-22T04:17:03.342Z,-62
2023-02-22T04:19:31.474Z,-61
2023-02-22T04:21:59.625Z,-62
2023-02-22T04:24:30.533Z,-62
2023-02-22T04:26:58.815Z,-62
2023-02-22T04:29:26.941Z,-62
2023-02-22T04:31:55.091Z,-64
2023-02-22T04:34:23.390Z,-61
2023-02-22T04:36:52.365Z,-61
2023-02-22T04:39:20.645Z,-61
2023-02-22T04:41:50.384Z,-61
2023-02-22T04:44:18.795Z,-62
2023-02-22T04:46:47.548Z,-62
2023-02-22T04:49:15.753Z,-62
2023-02-22T04:51:43.946Z,-61
2023-02-22T04:54:12.865Z,-63
2023-02-22T04:56:41.000Z,-62
2023-02-22T04:59:10.672Z,-63
2023-02-22T05:01:40.006Z,-63
2023-02-22T05:04:09.487Z,-62
2023-02-22T05:06:37.879Z,-62
2023-02-22T05:09:05.994Z,-61
2023-02-22T05:11:34.118Z,-61
2023-02-22T05:14:02.285Z,-62
2023-02-22T05:16:31.970Z,-53
2023-02-22T05:19:00.115Z,-56
2023-02-22T05:21:28.287Z,-54
2023-02-22T05:23:57.348Z,-52
2023-02-22T05:26:25.517Z,-54
2023-02-22T05:28:53.654Z,-55
2023-02-22T05:31:21.904Z,-57
2023-02-22T05:33:51.366Z,-53
2023-02-22T05:36:19.520Z,-55
2023-02-22T05:38:47.637Z,-53
2023-02-22T05:41:16.163Z,-54
2023-02-22T05:43:44.536Z,-52
2023-02-22T05:46:12.881Z,-54
2023-02-22T05:48:41.062Z,-54
2023-02-22T05:51:10.700Z,-51
2023-02-22T05:53:38.849Z,-55
2023-02-22T05:56:07.837Z,-53
2023-02-22T05:58:35.998Z,-54
2023-02-22T06:01:04.129Z,-52
2023-02-22T06:03:32.230Z,-54
2023-02-22T06:06:00.363Z,-54
2023-02-22T06:08:29.823Z,-53
2023-02-22T06:10:58.126Z,-51
2023-02-22T06:13:26.259Z,-55
2023-02-22T06:15:54.438Z,-52
2023-02-22T06:18:22.597Z,-53
2023-02-22T06:20:50.825Z,-54
2023-02-22T06:23:18.959Z,-53
2023-02-22T06:25:49.261Z,-52
2023-02-22T06:28:17.529Z,-54
2023-02-22T06:30:46.112Z,-55
2023-02-22T06:33:14.365Z,-51
2023-02-22T06:35:42.487Z,-54
2023-02-22T06:38:10.627Z,-55
2023-02-22T06:40:38.795Z,-57
2023-02-22T06:43:08.337Z,-55
2023-02-22T06:45:36.472Z,-55
2023-02-22T06:48:04.857Z,-54
2023-02-22T06:50:35.823Z,-55
2023-02-22T06:53:04.782Z,-55
2023-02-22T06:55:35.339Z,-55
2023-02-22T06:58:05.789Z,-56
2023-02-22T07:00:35.318Z,-53
2023-02-22T07:03:06.055Z,-53
2023-02-22T07:05:34.238Z,-57
2023-02-22T07:08:08.495Z,-55
2023-02-22T07:10:38.699Z,-56
2023-02-22T07:13:09.275Z,-55
2023-02-22T07:15:38.808Z,-54
2023-02-22T07:18:07.324Z,-53
2023-02-22T07:20:36.246Z,-53
2023-02-22T07:23:05.039Z,-55
2023-02-22T07:25:33.122Z,-54
2023-02-22T07:28:02.436Z,-54
2023-02-22T07:30:34.172Z,-55
2023-02-22T07:33:06.772Z,-55
2023-02-22T07:35:37.588Z,-54
2023-02-22T07:38:07.951Z,-53
2023-02-22T07:40:37.564Z,-54
2023-02-22T07:43:15.947Z,-53
2023-02-22T07:45:44.182Z,-55
2023-02-22T07:48:17.303Z,-54
2023-02-22T07:50:45.879Z,-56
2023-02-22T07:53:19.164Z,-54
2023-02-22T07:55:48.969Z,-56
2023-02-22T07:58:17.673Z,-54
2023-02-22T08:00:48.284Z,-55
2023-02-22T08:03:20.952Z,-52
2023-02-22T08:05:51.958Z,-55
2023-02-22T08:08:20.270Z,-54
2023-02-22T08:10:49.360Z,-54
2023-02-22T08:13:18.636Z,-54
2023-02-22T08:15:48.000Z,-53
2023-02-22T08:18:20.150Z,-50
2023-02-22T08:20:51.895Z,-52
2023-02-22T08:23:23.462Z,-54
2023-02-22T08:25:51.977Z,-54
2023-02-22T08:28:23.396Z,-53
2023-02-22T08:30:52.252Z,-55
2023-02-22T08:33:22.079Z,-51
2023-02-22T08:35:51.623Z,-55
2023-02-22T08:38:24.185Z,-53
2023-02-22T08:40:52.654Z,-55
2023-02-22T08:43:22.663Z,-51
2023-02-22T08:45:52.423Z,-56
2023-02-22T08:48:22.077Z,-51
2023-02-22T08:50:50.133Z,-52
2023-02-22T08:53:19.180Z,-55
2023-02-22T08:55:47.500Z,-52
2023-02-22T08:58:15.689Z,-52
2023-02-22T09:00:44.743Z,-52
2023-02-22T09:03:15.368Z,-54
2023-02-22T09:05:45.794Z,-54
2023-02-22T09:08:14.041Z,-55
2023-02-22T09:10:42.620Z,-52
2023-02-22T09:13:10.789Z,-56
2023-02-22T09:15:39.882Z,-55
2023-02-22T09:18:14.349Z,-54
2023-02-22T09:20:44.050Z,-53
2023-02-22T09:23:12.352Z,-55
2023-02-22T09:25:40.771Z,-54
2023-02-22T09:28:09.124Z,-56
2023-02-22T09:30:38.344Z,-54
2023-02-22T09:33:10.677Z,-62
2023-02-22T09:35:42.119Z,-63
2023-02-22T09:38:12.298Z,-62
2023-02-22T09:40:46.110Z,-62
2023-02-22T09:43:35.612Z,-62
2023-02-22T09:46:22.879Z,-62
2023-02-22T09:49:02.878Z,-60
2023-02-22T09:51:41.112Z,-63
2023-02-22T09:54:22.476Z,-63
2023-02-22T09:56:57.304Z,-62
2023-02-22T09:59:32.813Z,-63
2023-02-22T10:02:22.049Z,-64
2023-02-22T10:04:58.509Z,-62
2023-02-22T10:07:34.465Z,-64
2023-02-22T10:10:06.849Z,-64
2023-02-22T10:12:49.437Z,-65
2023-02-22T10:15:47.525Z,-62
2023-02-22T10:19:00.162Z,-60
2023-02-22T10:21:57.722Z,-66
2023-02-22T10:24:42.405Z,-62
2023-02-22T10:27:22.081Z,-64
2023-02-22T10:29:55.742Z,-66
2023-02-22T10:32:32.262Z,-66
2023-02-22T10:35:05.435Z,-64
2023-02-22T10:37:35.807Z,-61
2023-02-22T10:40:17.746Z,-63
2023-02-22T10:42:47.920Z,-63
2023-02-22T10:45:26.727Z,-63
2023-02-22T10:47:59.304Z,-63
2023-02-22T10:50:30.541Z,-64
2023-02-22T10:52:58.953Z,-63
2023-02-22T10:55:27.496Z,-63
2023-02-22T10:58:06.753Z,-64
2023-02-22T11:00:38.229Z,-63
2023-02-22T11:03:19.077Z,-64
2023-02-22T11:05:47.700Z,-62
2023-02-22T11:08:32.925Z,-65
2023-02-22T11:11:20.060Z,-62
2023-02-22T11:13:56.371Z,-62
2023-02-22T11:16:32.883Z,-62
2023-02-22T11:19:08.972Z,-63
2023-02-22T11:21:37.343Z,-62
2023-02-22T11:24:10.084Z,-62
2023-02-22T11:26:43.738Z,-64
2023-02-22T11:29:23.048Z,-63
2023-02-22T11:31:51.984Z,-63
2023-02-22T11:34:31.507Z,-64
2023-02-22T11:37:30.351Z,-63
2023-02-22T11:40:19.456Z,-63
2023-02-22T11:42:48.387Z,-63
2023-02-22T11:45:23.614Z,-65
2023-02-22T11:47:55.857Z,-64
2023-02-22T11:50:31.721Z,-64
2023-02-22T11:53:31.116Z,-63
2023-02-22T11:56:20.580Z,-62
2023-02-22T11:59:03.462Z,-62
2023-02-22T12:01:46.392Z,-61
2023-02-22T12:04:53.077Z,-63
2023-02-22T12:07:50.510Z,-63
2023-02-22T12:10:39.378Z,-66
2023-02-22T12:13:32.614Z,-65
2023-02-22T12:16:16.921Z,-62
2023-02-22T12:19:13.632Z,-63
2023-02-22T12:21:49.321Z,-64
2023-02-22T12:24:22.547Z,-63
2023-02-22T12:26:58.650Z,-64
2023-02-22T12:29:33.790Z,-63
2023-02-22T12:32:11.162Z,-63
2023-02-22T12:34:49.387Z,-62
2023-02-22T12:37:25.238Z,-63
2023-02-22T12:40:08.215Z,-63
2023-02-22T12:42:52.616Z,-63
2023-02-22T12:45:33.219Z,-64
2023-02-22T12:48:23.350Z,-63
2023-02-22T12:51:00.780Z,-63
2023-02-22T12:53:38.659Z,-64
2023-02-22T12:56:23.178Z,-66
2023-02-22T12:59:02.822Z,-62
2023-02-22T13:01:39.071Z,-64
2023-02-22T13:04:20.125Z,-63
2023-02-22T13:07:06.504Z,-63
2023-02-22T13:10:14.290Z,-65
2023-02-22T13:12:54.053Z,-64
2023-02-22T13:15:31.291Z,-64
2023-02-22T13:18:13.063Z,-62
2023-02-22T13:20:49.893Z,-63
2023-02-22T13:23:38.929Z,-66
2023-02-22T13:26:19.734Z,-64
2023-02-22T13:28:59.379Z,-64
2023-02-22T13:31:56.615Z,-66
2023-02-22T13:34:55.852Z,-65
2023-02-22T13:37:55.200Z,-66
2023-02-22T13:41:03.270Z,-63
2023-02-22T13:44:16.113Z,-64
2023-02-22T13:47:36.308Z,-64
2023-02-22T13:50:53.048Z,-63
2023-02-22T13:53:29.849Z,-64
2023-02-22T13:56:01.671Z,-64
2023-02-22T13:58:29.955Z,-66
2023-02-22T14:01:00.294Z,-63
2023-02-22T14:03:40.689Z,-65
2023-02-22T14:06:41.507Z,-63
2023-02-22T14:09:10.469Z,-63
2023-02-22T14:11:52.042Z,-62
2023-02-22T14:14:20.121Z,-62
2023-02-22T14:17:24.691Z,-63
2023-02-22T14:20:21.253Z,-64
2023-02-22T14:22:52.934Z,-61
2023-02-22T14:25:40.086Z,-63
2023-02-22T14:28:43.375Z,-66
2023-02-22T14:31:33.293Z,-68
2023-02-22T14:34:10.068Z,-68
2023-02-22T14:36:48.515Z,-67
2023-02-22T14:39:26.720Z,-68
2023-02-22T14:42:03.565Z,-67
2023-02-22T14:44:40.563Z,-67
2023-02-22T14:47:19.996Z,-68
2023-02-22T14:49:54.773Z,-68
2023-02-22T14:52:28.852Z,-68
2023-02-22T14:55:12.650Z,-68
2023-02-22T14:57:56.746Z,-67
2023-02-22T15:00:37.402Z,-66
2023-02-22T15:03:05.712Z,-66
2023-02-22T15:05:39.202Z,-66
2023-02-22T15:08:10.582Z,-65
2023-02-22T15:10:44.773Z,-68
2023-02-22T15:13:20.281Z,-67
2023-02-22T15:15:59.074Z,-68
2023-02-22T15:18:36.209Z,-66
2023-02-22T15:21:15.470Z,-66
2023-02-22T15:23:46.602Z,-68
2023-02-22T15:26:21.320Z,-66
2023-02-22T15:28:54.264Z,-66
2023-02-22T15:31:32.715Z,-65
2023-02-22T15:34:22.165Z,-67
2023-02-22T15:36:54.457Z,-65
2023-02-22T15:39:29.203Z,-64
2023-02-22T15:42:08.259Z,-67
2023-02-22T15:44:40.388Z,-64
2023-02-22T15:47:17.367Z,-62
2023-02-22T15:49:45.520Z,-64
2023-02-22T15:52:21.792Z,-64
2023-02-22T15:54:53.370Z,-63
2023-02-22T15:57:25.354Z,-65
2023-02-22T15:59:58.183Z,-68
2023-02-22T16:02:41.546Z,-65
2023-02-22T16:05:12.999Z,-64
2023-02-22T16:07:45.929Z,-68
2023-02-22T16:10:29.777Z,-66
2023-02-22T16:13:22.118Z,-68
2023-02-22T16:16:04.435Z,-68
2023-02-22T16:18:37.927Z,-66
2023-02-22T16:21:11.739Z,-67
2023-02-22T16:23:49.250Z,-66
2023-02-22T16:26:28.441Z,-66
2023-02-22T16:28:58.802Z,-65
2023-02-22T16:31:31.954Z,-65
2023-02-22T16:34:02.664Z,-66
2023-02-22T16:36:41.990Z,-66
2023-02-22T16:39:20.999Z,-65
2023-02-22T16:41:49.657Z,-65
2023-02-22T16:44:18.641Z,-65
2023-02-22T16:46:46.779Z,-65
2023-02-22T16:49:16.333Z,-66
2023-02-22T16:51:48.849Z,-64
2023-02-22T16:54:27.180Z,-65
2023-02-22T16:57:01.946Z,-65
2023-02-22T16:59:33.885Z,-65
2023-02-22T17:02:01.975Z,-69
2023-02-22T17:04:32.008Z,-66
2023-02-22T17:07:00.324Z,-67
2023-02-22T17:09:28.476Z,-66
2023-02-22T17:11:57.149Z,-66
2023-02-22T17:14:34.577Z,-66
2023-02-22T17:17:02.818Z,-66
2023-02-22T17:19:32.282Z,-63
2023-02-22T17:22:05.872Z,-67
2023-02-22T17:24:34.118Z,-65
2023-02-22T17:27:02.997Z,-66
2023-02-22T17:29:31.176Z,-66
2023-02-22T17:31:59.669Z,-65
2023-02-22T17:34:28.041Z,-66
2023-02-22T17:36:57.516Z,-66
2023-02-22T17:39:27.316Z,-66
2023-02-22T17:41:57.732Z,-66
2023-02-22T17:44:26.238Z,-66
2023-02-22T17:46:54.583Z,-67
2023-02-22T17:49:22.827Z,-66
2023-02-22T17:51:53.117Z,-67
2023-02-22T17:54:23.005Z,-66
2023-02-22T17:56:51.202Z,-67
2023-02-22T17:59:19.370Z,-65
2023-02-22T18:01:48.142Z,-66
2023-02-22T18:04:16.520Z,-67
2023-02-22T18:06:45.166Z,-68
2023-02-22T18:09:14.560Z,-67
2023-02-22T18:11:44.347Z,-67
2023-02-22T18:14:12.417Z,-67
2023-02-22T18:16:41.474Z,-66
2023-02-22T18:19:09.843Z,-67
2023-02-22T18:21:38.703Z,-66
2023-02-22T18:24:08.123Z,-68
2023-02-22T18:26:38.881Z,-66
2023-02-22T18:29:11.344Z,-66
2023-02-22T18:31:39.572Z,-69
2023-02-22T18:34:07.677Z,-65
2023-02-22T18:36:35.753Z,-67
2023-02-22T18:39:04.220Z,-69
2023-02-22T18:41:32.272Z,-66
2023-02-22T18:44:00.827Z,-67
2023-02-22T18:46:30.823Z,-65
2023-02-22T18:48:59.413Z,-65
2023-02-22T18:51:28.946Z,-68
2023-02-22T18:54:00.407Z,-66
2023-02-22T18:56:30.673Z,-65
2023-02-22T18:59:01.235Z,-66
2023-02-22T19:01:38.445Z,-66
2023-02-22T19:04:09.659Z,-65
2023-02-22T19:06:38.262Z,-66
2023-02-22T19:09:08.494Z,-65
2023-02-22T19:11:40.010Z,-66
2023-02-22T19:14:09.502Z,-67
2023-02-22T19:16:39.385Z,-64
2023-02-22T19:19:07.457Z,-65
2023-02-22T19:21:36.456Z,-64
2023-02-22T19:24:05.452Z,-67
2023-02-22T19:26:34.097Z,-67
2023-02-22T19:29:06.246Z,-66
2023-02-22T19:31:35.839Z,-67
2023-02-22T19:34:09.685Z,-67
2023-02-22T19:36:40.028Z,-67
2023-02-22T19:39:08.564Z,-66
2023-02-22T19:41:36.734Z,-66
2023-02-22T19:44:05.676Z,-65
2023-02-22T19:46:34.942Z,-66
2023-02-22T19:49:05.453Z,-65
2023-02-22T19:51:34.549Z,-66
2023-02-22T19:54:06.026Z,-66
2023-02-22T19:56:36.098Z,-66
2023-02-22T19:59:12.496Z,-65
2023-02-22T20:01:44.230Z,-66
2023-02-22T20:04:18.381Z,-66
2023-02-22T20:06:48.628Z,-66
2023-02-22T20:09:20.283Z,-65
2023-02-22T20:11:49.413Z,-66
2023-02-22T20:14:23.436Z,-66
2023-02-22T20:16:51.827Z,-66
2023-02-22T20:19:22.509Z,-66
2023-02-22T20:21:52.243Z,-66
2023-02-22T20:24:20.796Z,-66
2023-02-22T20:26:49.457Z,-65
2023-02-22T20:29:18.721Z,-62
2023-02-22T20:31:52.389Z,-67
2023-02-22T20:34:21.952Z,-65
2023-02-22T20:36:50.445Z,-66
2023-02-22T20:39:18.925Z,-67
2023-02-22T20:41:47.347Z,-64
2023-02-22T20:44:20.099Z,-64
2023-02-22T20:46:49.304Z,-63
2023-02-22T20:49:21.389Z,-64
2023-02-22T20:51:50.420Z,-62
2023-02-22T20:54:19.204Z,-61
2023-02-22T20:56:48.396Z,-61
2023-02-22T20:59:19.622Z,-64
2023-02-22T21:01:49.930Z,-63
2023-02-22T21:04:18.282Z,-66
2023-02-22T21:06:47.851Z,-64
2023-02-22T21:09:20.019Z,-64
2023-02-22T21:11:49.040Z,-64
2023-02-22T21:14:19.737Z,-64
2023-02-22T21:16:50.398Z,-65
2023-02-22T21:19:28.118Z,-66
2023-02-22T21:22:01.396Z,-65
2023-02-22T21:24:30.797Z,-64
2023-02-22T21:26:59.392Z,-63
2023-02-22T21:29:28.339Z,-67
2023-02-22T21:31:57.443Z,-65
2023-02-22T21:34:26.215Z,-65
2023-02-22T21:36:54.573Z,-65
2023-02-22T21:39:28.145Z,-67
2023-02-22T21:42:00.395Z,-65
2023-02-22T21:44:29.289Z,-67
2023-02-22T21:46:57.549Z,-66
2023-02-22T21:49:25.725Z,-63
2023-02-22T21:51:53.876Z,-64
2023-02-22T21:54:24.055Z,-63
2023-02-22T21:56:54.346Z,-65
2023-02-22T21:59:23.977Z,-65
2023-02-22T22:01:56.515Z,-66
2023-02-22T22:04:29.446Z,-65
2023-02-22T22:06:59.925Z,-67
2023-02-22T22:09:32.795Z,-66
2023-02-22T22:12:05.051Z,-63
2023-02-22T22:14:34.999Z,-62
2023-02-22T22:17:05.469Z,-61
2023-02-22T22:19:39.049Z,-62
2023-02-22T22:22:07.829Z,-61
2023-02-22T22:24:37.992Z,-64
2023-02-22T22:27:09.678Z,-63
2023-02-22T22:29:37.766Z,-62
2023-02-22T22:32:07.229Z,-65
2023-02-22T22:34:37.748Z,-65
2023-02-22T22:37:05.881Z,-64
2023-02-22T22:39:34.011Z,-63
2023-02-22T22:42:03.548Z,-61
2023-02-22T22:44:32.799Z,-60
2023-02-22T22:47:01.125Z,-61
2023-02-22T22:49:31.278Z,-65
2023-02-22T22:51:59.625Z,-62
2023-02-22T22:54:28.815Z,-60
2023-02-22T22:56:56.942Z,-60
2023-02-22T22:59:27.738Z,-65
2023-02-22T23:01:56.601Z,-63
2023-02-22T23:04:25.480Z,-64
2023-02-22T23:06:55.401Z,-64
2023-02-22T23:09:26.462Z,-63
2023-02-22T23:11:58.000Z,-63
2023-02-22T23:14:31.114Z,-65
2023-02-22T23:17:03.467Z,-64
2023-02-22T23:19:32.656Z,-62
2023-02-22T23:22:01.424Z,-62
2023-02-22T23:24:29.603Z,-69
2023-02-22T23:27:00.028Z,-64
2023-02-22T23:29:30.668Z,-64
2023-02-22T23:31:59.042Z,-63
2023-02-22T23:34:28.894Z,-63
2023-02-22T23:36:57.130Z,-63
2023-02-22T23:39:27.182Z,-66
2023-02-22T23:41:59.732Z,-61
2023-02-22T23:44:30.066Z,-65
2023-02-22T23:46:58.258Z,-65
2023-02-22T23:49:37.835Z,-63
2023-02-22T23:52:07.535Z,-64
2023-02-22T23:54:43.629Z,-64
2023-02-22T23:57:12.022Z,-66
2023-02-22T23:59:41.474Z,-64
